Time;durP1;ratioP1;P1;durP2;ratioP2;P2;SDS_P1;SDS_P2;PMS_P1;PMS_P2;Temp;Humidity;BMP_temperature;BMP_pressure;BME280_temperature;BME280_humidity;BME280_pressure;Samples;Min_cycle;Max_cycle;Signal;HPM_P1;HPM_P2
2021/09/07 00:01:34;;;;;;;10.30;7.63;;;;;;;17.93;64.31;97376.47;5000294;28;20191;-59
2021/09/07 00:04:00;;;;;;;9.43;7.23;;;;;;;17.98;63.74;97372.00;5000472;28;20210;-59
2021/09/07 00:06:25;;;;;;;10.53;7.73;;;;;;;17.82;64.48;97379.09;5006824;28;20290;-59
2021/09/07 00:08:50;;;;;;;12.03;7.93;;;;;;;18.02;63.72;97381.03;4995739;28;20263;-59
2021/09/07 00:11:17;;;;;;;10.17;7.33;;;;;;;17.85;64.18;97383.88;5008212;28;20242;-60
2021/09/07 00:13:43;;;;;;;8.13;6.50;;;;;;;17.85;64.37;97375.09;5001332;28;20186;-59
2021/09/07 00:16:09;;;;;;;13.30;7.13;;;;;;;17.62;64.83;97372.84;5001204;28;20184;-60
2021/09/07 00:18:34;;;;;;;9.87;6.90;;;;;;;17.61;65.13;97377.34;5007653;28;20561;-60
2021/09/07 00:20:59;;;;;;;10.20;7.30;;;;;;;17.58;65.29;97366.44;4996014;28;20565;-60
2021/09/07 00:23:25;;;;;;;9.10;6.90;;;;;;;17.56;65.47;97376.50;5010724;28;20234;-59
2021/09/07 00:25:50;;;;;;;9.57;7.20;;;;;;;17.47;65.80;97365.59;5004891;28;20237;-59
2021/09/07 00:28:15;;;;;;;8.10;6.77;;;;;;;17.41;66.24;97370.06;5003101;28;20583;-60
2021/09/07 00:30:41;;;;;;;10.13;7.70;;;;;;;17.51;65.89;97374.63;4997899;28;20188;-60
2021/09/07 00:33:08;;;;;;;12.07;8.10;;;;;;;17.57;65.71;97372.81;5008097;28;20180;-60
2021/09/07 00:35:34;;;;;;;9.73;7.57;;;;;;;17.55;65.55;97373.09;5010579;28;20215;-60
2021/09/07 00:37:59;;;;;;;10.63;7.13;;;;;;;17.45;65.84;97373.00;5013807;28;20223;-59
2021/09/07 00:40:24;;;;;;;9.43;7.33;;;;;;;17.42;66.08;97374.31;5003897;28;20350;-60
2021/09/07 00:42:50;;;;;;;9.93;7.43;;;;;;;17.33;66.25;97375.06;5010241;28;20218;-59
2021/09/07 00:45:15;;;;;;;12.90;7.33;;;;;;;17.20;66.86;97365.69;5002277;28;20640;-59
2021/09/07 00:47:41;;;;;;;11.90;8.07;;;;;;;17.14;67.51;97369.34;5003630;28;20199;-60
2021/09/07 00:50:09;;;;;;;10.20;7.30;;;;;;;17.42;66.47;97365.56;5007273;28;20246;-60
2021/09/07 00:52:37;;;;;;;10.97;7.50;;;;;;;17.55;65.61;97362.47;5003004;28;20196;-59
2021/09/07 00:55:03;;;;;;;8.43;7.20;;;;;;;17.56;65.52;97364.03;4997341;28;20186;-61
2021/09/07 00:57:31;;;;;;;10.27;7.63;;;;;;;17.40;65.82;97368.47;5006142;28;20187;-60
2021/09/07 00:59:56;;;;;;;9.50;7.23;;;;;;;17.27;66.75;97368.94;5007652;28;20188;-60
2021/09/07 01:02:22;;;;;;;8.87;7.00;;;;;;;17.23;66.79;97370.47;5006314;28;20635;-61
2021/09/07 01:04:48;;;;;;;10.43;6.97;;;;;;;17.18;66.99;97364.31;5000987;28;20225;-60
2021/09/07 01:07:14;;;;;;;11.90;7.20;;;;;;;17.21;66.90;97362.00;4997427;28;20571;-59
2021/09/07 01:09:40;;;;;;;11.03;7.70;;;;;;;17.18;67.23;97359.84;5010354;28;20184;-60
2021/09/07 01:12:07;;;;;;;9.90;7.37;;;;;;;17.29;66.67;97360.69;5003588;28;20218;-59
2021/09/07 01:14:36;;;;;;;11.97;8.10;;;;;;;17.22;66.90;97357.50;5003782;28;20204;-60
2021/09/07 01:17:01;;;;;;;9.87;6.90;;;;;;;17.26;66.85;97358.56;5010528;28;20211;-59
2021/09/07 01:19:28;;;;;;;10.13;7.43;;;;;;;17.18;67.20;97359.84;5010654;28;20221;-60
2021/09/07 01:21:53;;;;;;;11.50;7.73;;;;;;;17.16;67.36;97358.50;5006465;28;20203;-59
2021/09/07 01:24:21;;;;;;;9.83;7.20;;;;;;;17.10;67.67;97356.88;5005676;28;20237;-59
2021/09/07 01:26:47;;;;;;;12.37;7.63;;;;;;;17.29;67.11;97358.06;5001938;28;20207;-59
2021/09/07 01:29:12;;;;;;;11.13;7.80;;;;;;;17.20;67.27;97356.94;5011384;28;20600;-60
2021/09/07 01:31:38;;;;;;;10.33;7.70;;;;;;;17.32;66.79;97346.97;4998623;28;20176;-60
2021/09/07 01:34:03;;;;;;;12.87;7.80;;;;;;;17.13;67.93;97362.44;5005431;28;20183;-59
2021/09/07 01:36:28;;;;;;;10.30;8.00;;;;;;;17.00;68.35;97358.38;5005019;28;20196;-59
2021/09/07 01:38:54;;;;;;;11.63;8.70;;;;;;;17.11;68.08;97351.28;5007730;28;20613;-59
2021/09/07 01:41:19;;;;;;;10.70;7.70;;;;;;;17.03;68.33;97357.88;4997847;28;20191;-60
2021/09/07 01:43:51;;;;;;;12.60;9.17;;;;;;;16.80;69.01;97355.56;5005624;28;20663;-59
2021/09/07 01:46:17;;;;;;;13.67;8.83;;;;;;;16.96;68.38;97352.00;5006058;28;20259;-60
2021/09/07 01:48:42;;;;;;;12.60;8.17;;;;;;;16.95;68.48;97360.19;5005784;28;20322;-59
2021/09/07 01:51:08;;;;;;;11.67;8.53;;;;;;;16.89;68.83;97359.34;4999852;28;20286;-60
2021/09/07 01:53:33;;;;;;;10.07;8.13;;;;;;;16.93;68.38;97360.44;4996972;28;20218;-59
2021/09/07 01:55:59;;;;;;;11.90;8.13;;;;;;;16.77;69.03;97352.63;5009821;28;20184;-60
2021/09/07 01:58:24;;;;;;;10.93;8.33;;;;;;;16.70;69.66;97352.84;5003371;28;20230;-59
2021/09/07 02:00:49;;;;;;;10.30;8.20;;;;;;;16.68;69.37;97348.81;5003192;28;20616;-60
2021/09/07 02:03:15;;;;;;;12.67;8.60;;;;;;;16.72;69.11;97356.00;5009331;28;20195;-60
2021/09/07 02:05:40;;;;;;;10.53;7.20;;;;;;;16.67;69.40;97357.81;4997418;28;20593;-61
2021/09/07 02:08:06;;;;;;;10.23;8.23;;;;;;;16.56;69.69;97352.41;5012732;28;20552;-60
2021/09/07 02:10:32;;;;;;;9.53;7.93;;;;;;;16.50;70.09;97348.09;5007052;28;20226;-59
2021/09/07 02:12:58;;;;;;;9.73;8.20;;;;;;;16.48;70.37;97346.78;5003657;28;20203;-59
2021/09/07 02:15:23;;;;;;;12.47;7.83;;;;;;;16.42;70.59;97339.84;5008506;28;20183;-60
2021/09/07 02:17:49;;;;;;;9.60;8.00;;;;;;;16.47;70.45;97345.16;5010206;28;20572;-60
2021/09/07 02:20:14;;;;;;;11.53;7.80;;;;;;;16.48;70.36;97339.63;5000034;28;20175;-60
2021/09/07 02:22:41;;;;;;;12.90;8.77;;;;;;;16.49;70.22;97335.16;5004783;28;20180;-60
2021/09/07 02:25:07;;;;;;;10.87;8.53;;;;;;;16.54;70.45;97343.94;5006599;28;20196;-59
2021/09/07 02:27:32;;;;;;;10.33;8.40;;;;;;;16.45;70.64;97344.59;4997028;28;20204;-59
2021/09/07 02:29:58;;;;;;;13.57;8.77;;;;;;;16.53;70.61;97352.13;5011852;28;20675;-60
2021/09/07 02:32:23;;;;;;;10.00;8.27;;;;;;;16.50;71.12;97349.94;5010877;28;20187;-60
2021/09/07 02:34:48;;;;;;;11.30;9.03;;;;;;;16.57;70.85;97343.41;5003631;28;20176;-62
2021/09/07 02:37:14;;;;;;;11.77;8.87;;;;;;;16.40;71.46;97352.50;5007680;28;20298;-59
2021/09/07 02:39:39;;;;;;;11.87;9.40;;;;;;;16.33;71.77;97346.63;4997753;28;20234;-60
2021/09/07 02:42:05;;;;;;;10.00;8.37;;;;;;;16.27;72.40;97344.97;5008476;28;20191;-59
2021/09/07 02:44:33;;;;;;;10.43;8.10;;;;;;;16.21;72.43;97342.28;5000289;28;20273;-59
2021/09/07 02:46:59;;;;;;;12.90;8.53;;;;;;;16.26;72.56;97344.19;5007062;28;20762;-59
2021/09/07 02:49:24;;;;;;;11.13;8.83;;;;;;;16.12;72.85;97342.94;4998242;28;20287;-61
2021/09/07 02:51:50;;;;;;;12.33;8.93;;;;;;;16.16;72.60;97347.47;5010529;28;20184;-59
2021/09/07 02:54:16;;;;;;;12.60;9.63;;;;;;;16.18;72.43;97342.75;4999637;28;20188;-60
2021/09/07 02:56:41;;;;;;;11.17;7.80;;;;;;;16.06;73.13;97346.56;5002092;28;20646;-60
2021/09/07 02:59:07;;;;;;;11.00;8.33;;;;;;;16.15;72.62;97343.25;5010455;28;20197;-59
2021/09/07 03:01:32;;;;;;;11.17;8.60;;;;;;;16.17;72.35;97345.63;5010923;28;20190;-59
2021/09/07 03:03:58;;;;;;;13.70;9.43;;;;;;;16.26;72.01;97354.75;5009286;28;20274;-59
2021/09/07 03:06:24;;;;;;;10.87;9.07;;;;;;;16.44;71.05;97350.97;5008004;28;20179;-59
2021/09/07 03:08:49;;;;;;;12.63;9.30;;;;;;;16.41;70.94;97346.97;4997182;28;20187;-59
2021/09/07 03:11:14;;;;;;;12.13;9.23;;;;;;;16.05;72.35;97343.13;5000811;28;20180;-59
2021/09/07 03:13:40;;;;;;;12.23;8.50;;;;;;;15.95;72.70;97345.66;5001968;28;20222;-60
2021/09/07 03:16:05;;;;;;;13.27;9.23;;;;;;;15.98;72.80;97349.66;5007274;28;20194;-59
2021/09/07 03:18:31;;;;;;;12.50;8.90;;;;;;;16.00;73.01;97345.72;5001187;28;20659;-60
2021/09/07 03:20:56;;;;;;;12.07;9.70;;;;;;;15.74;73.96;97336.69;5004091;28;20219;-60
2021/09/07 03:23:22;;;;;;;11.17;8.70;;;;;;;15.80;73.69;97334.91;5004686;28;20646;-63
2021/09/07 03:25:47;;;;;;;12.70;9.53;;;;;;;15.74;74.25;97328.75;5002471;28;20222;-59
2021/09/07 03:28:13;;;;;;;13.20;10.43;;;;;;;15.75;74.34;97326.94;5004750;28;20684;-60
2021/09/07 03:30:38;;;;;;;15.53;10.50;;;;;;;15.79;74.68;97328.81;5003571;28;20180;-60
2021/09/07 03:33:04;;;;;;;15.33;11.17;;;;;;;15.65;75.75;97335.53;5005437;28;20187;-62
2021/09/07 03:35:30;;;;;;;13.33;11.17;;;;;;;15.69;75.27;97334.00;5002350;28;20241;-60
2021/09/07 03:37:56;;;;;;;15.00;10.97;;;;;;;15.72;75.67;97322.13;4997449;28;20279;-59
2021/09/07 03:40:21;;;;;;;15.77;11.07;;;;;;;15.55;76.35;97327.44;5005149;28;20319;-59
2021/09/07 03:42:46;;;;;;;12.67;9.97;;;;;;;15.66;76.00;97329.19;5000714;28;20192;-59
2021/09/07 03:45:14;;;;;;;14.87;9.90;;;;;;;15.62;76.41;97322.78;5003731;28;20221;-59
2021/09/07 03:47:41;;;;;;;14.07;9.93;;;;;;;15.59;77.18;97314.56;5008739;28;20234;-60
2021/09/07 03:50:08;;;;;;;12.73;10.43;;;;;;;15.64;77.39;97310.16;5001066;28;20267;-60
2021/09/07 03:52:33;;;;;;;14.13;9.30;;;;;;;15.59;78.08;97312.72;5001474;28;20191;-59
2021/09/07 03:54:59;;;;;;;13.43;9.83;;;;;;;15.58;78.12;97310.31;5001529;28;20459;-59
2021/09/07 03:57:24;;;;;;;12.40;9.63;;;;;;;15.51;78.97;97325.50;5015106;28;20187;-61
2021/09/07 03:59:49;;;;;;;19.10;10.77;;;;;;;15.62;78.19;97322.78;5000403;28;20546;-59
2021/09/07 04:02:15;;;;;;;13.93;9.77;;;;;;;15.61;78.34;97320.38;5009621;28;20555;-60
2021/09/07 04:04:40;;;;;;;13.87;10.43;;;;;;;15.36;79.23;97326.91;5011343;28;20179;-60
2021/09/07 04:07:05;;;;;;;14.77;10.20;;;;;;;15.29;79.51;97321.00;4999955;28;20207;-60
2021/09/07 04:09:31;;;;;;;12.93;9.97;;;;;;;15.31;79.41;97329.50;4999568;28;20653;-59
2021/09/07 04:11:56;;;;;;;12.53;9.63;;;;;;;15.46;78.64;97328.09;5000129;28;20203;-59
2021/09/07 04:14:22;;;;;;;12.37;9.47;;;;;;;15.43;78.83;97329.41;4998442;28;20191;-60
2021/09/07 04:16:47;;;;;;;13.93;9.40;;;;;;;15.33;79.21;97323.94;4999999;28;20191;-60
2021/09/07 04:19:12;;;;;;;13.40;9.70;;;;;;;15.48;78.56;97329.47;5009666;28;20195;-60
2021/09/07 04:21:38;;;;;;;15.30;10.27;;;;;;;15.23;79.33;97334.38;5006715;28;20179;-59
2021/09/07 04:24:04;;;;;;;12.27;9.73;;;;;;;15.18;79.49;97326.38;5003012;28;20583;-59
2021/09/07 04:26:30;;;;;;;12.73;9.77;;;;;;;15.18;79.27;97335.09;5005582;28;20179;-59
2021/09/07 04:28:56;;;;;;;12.87;9.70;;;;;;;15.31;78.61;97337.41;5000862;28;20695;-59
2021/09/07 04:31:22;;;;;;;14.10;10.23;;;;;;;15.18;79.26;97329.03;5008474;28;20315;-59
2021/09/07 04:33:47;;;;;;;14.07;10.17;;;;;;;15.27;78.73;97327.56;5007615;28;20249;-59
2021/09/07 04:36:12;;;;;;;12.93;9.83;;;;;;;15.22;79.14;97322.22;5002438;28;20188;-59
2021/09/07 04:38:38;;;;;;;13.10;9.60;;;;;;;15.17;79.46;97330.88;5003756;28;20311;-59
2021/09/07 04:41:03;;;;;;;12.13;9.57;;;;;;;15.22;78.91;97330.94;5004099;28;20188;-60
2021/09/07 04:43:29;;;;;;;12.27;9.70;;;;;;;15.16;78.98;97325.81;5004862;28;20189;-59
2021/09/07 04:45:55;;;;;;;12.17;9.30;;;;;;;15.31;78.21;97326.06;5007256;28;20180;-59
2021/09/07 04:48:20;;;;;;;13.27;9.10;;;;;;;15.31;77.42;97324.22;5000355;28;20207;-59
2021/09/07 04:50:46;;;;;;;14.67;9.73;;;;;;;15.27;77.13;97332.84;5012404;28;20232;-59
2021/09/07 04:53:11;;;;;;;10.60;8.57;;;;;;;15.27;77.19;97328.34;5002155;28;20525;-60
2021/09/07 04:55:36;;;;;;;11.17;8.67;;;;;;;15.35;76.38;97333.25;5008627;28;20761;-60
2021/09/07 04:58:03;;;;;;;13.00;9.60;;;;;;;15.43;76.17;97333.88;5007505;28;20259;-61
2021/09/07 05:00:28;;;;;;;12.20;8.80;;;;;;;15.40;76.02;97332.50;5008262;28;20556;-59
2021/09/07 05:02:53;;;;;;;13.67;9.30;;;;;;;15.58;75.23;97337.53;5004116;28;20188;-60
2021/09/07 05:05:19;;;;;;;12.77;8.83;;;;;;;15.75;74.48;97326.94;5011106;28;20176;-59
2021/09/07 05:07:44;;;;;;;12.33;9.13;;;;;;;15.76;74.46;97325.88;5003326;28;20294;-60
2021/09/07 05:10:10;;;;;;;10.17;8.33;;;;;;;15.77;74.52;97341.47;5004004;28;20176;-60
2021/09/07 05:12:35;;;;;;;10.33;8.83;;;;;;;15.86;74.08;97341.06;5003844;28;20198;-59
2021/09/07 05:15:01;;;;;;;11.00;8.30;;;;;;;15.68;74.80;97342.16;5008639;28;20241;-59
2021/09/07 05:17:26;;;;;;;12.47;8.70;;;;;;;15.75;74.82;97343.59;5005281;28;20187;-60
2021/09/07 05:19:51;;;;;;;12.20;9.43;;;;;;;15.94;74.14;97338.00;4999366;28;20555;-60
2021/09/07 05:22:17;;;;;;;10.73;8.47;;;;;;;15.97;74.22;97345.41;5008198;28;20241;-59
2021/09/07 05:24:42;;;;;;;10.77;8.77;;;;;;;15.98;73.99;97342.53;4999106;28;20211;-60
2021/09/07 05:27:08;;;;;;;11.63;8.67;;;;;;;16.07;73.84;97342.88;5003639;28;20342;-60
2021/09/07 05:29:33;;;;;;;11.33;8.10;;;;;;;16.10;73.45;97337.94;5011396;28;20203;-60
2021/09/07 05:31:58;;;;;;;9.67;8.00;;;;;;;16.00;74.09;97342.28;5000993;28;20270;-59
2021/09/07 05:34:25;;;;;;;10.57;7.83;;;;;;;15.92;74.17;97340.06;5007228;28;20230;-59
2021/09/07 05:36:50;;;;;;;9.90;7.93;;;;;;;16.18;73.32;97347.25;5003660;28;20727;-61
2021/09/07 05:39:15;;;;;;;10.53;8.10;;;;;;;16.15;73.44;97350.41;5002968;28;20335;-60
2021/09/07 05:41:41;;;;;;;12.20;7.80;;;;;;;16.34;72.72;97350.84;5010470;28;20199;-60
2021/09/07 05:44:06;;;;;;;15.07;8.37;;;;;;;16.32;72.93;97353.75;5001341;28;20219;-59
2021/09/07 05:46:33;;;;;;;10.97;8.63;;;;;;;16.52;72.22;97353.97;5004888;28;20537;-59
2021/09/07 05:48:58;;;;;;;12.17;8.57;;;;;;;16.52;72.21;97366.38;5006368;28;20595;-60
2021/09/07 05:51:24;;;;;;;11.47;8.67;;;;;;;16.71;71.10;97362.38;5000323;28;20192;-60
2021/09/07 05:53:49;;;;;;;11.60;7.90;;;;;;;16.58;71.71;97362.75;5000814;28;20640;-59
2021/09/07 05:56:17;;;;;;;12.67;8.37;;;;;;;16.61;71.77;97362.25;5004899;28;20183;-65
2021/09/07 05:58:42;;;;;;;11.70;8.47;;;;;;;16.71;71.55;97367.69;5007709;28;20187;-60
2021/09/07 06:01:08;;;;;;;10.53;8.37;;;;;;;16.70;71.48;97371.38;5004644;28;20195;-60
2021/09/07 06:03:33;;;;;;;10.90;8.90;;;;;;;16.72;71.12;97373.78;4996779;28;20599;-60
2021/09/07 06:05:58;;;;;;;10.83;8.33;;;;;;;16.52;71.89;97375.13;4996869;28;20191;-60
2021/09/07 06:08:24;;;;;;;10.80;8.70;;;;;;;16.77;71.17;97376.47;4996706;28;20294;-61
2021/09/07 06:10:49;;;;;;;15.20;8.97;;;;;;;16.72;71.32;97382.47;5000231;28;20575;-60
2021/09/07 06:13:15;;;;;;;10.87;7.83;;;;;;;16.81;70.76;97380.19;5012949;28;20254;-60
2021/09/07 06:15:41;;;;;;;11.40;8.40;;;;;;;16.89;70.18;97383.16;5005755;28;20187;-60
2021/09/07 06:18:08;;;;;;;9.60;8.00;;;;;;;17.05;69.51;97376.94;5000334;28;20191;-60
2021/09/07 06:20:34;;;;;;;11.47;7.73;;;;;;;17.01;69.56;97383.00;5009607;28;20191;-61
2021/09/07 06:22:59;;;;;;;15.23;9.17;;;;;;;17.20;68.89;97378.13;5009110;28;20671;-61
2021/09/07 06:25:25;;;;;;;9.87;7.53;;;;;;;17.08;69.08;97386.25;5001809;28;20203;-60
2021/09/07 06:27:50;;;;;;;9.10;7.60;;;;;;;17.14;68.73;97384.44;5002127;28;20560;-60
2021/09/07 06:30:16;;;;;;;14.63;7.90;;;;;;;17.08;68.99;97386.25;5009183;28;20183;-60
2021/09/07 06:32:42;;;;;;;12.40;8.37;;;;;;;17.12;69.20;97389.19;4999798;28;20254;-60
2021/09/07 06:35:08;;;;;;;10.37;7.90;;;;;;;17.23;68.87;97386.34;4999668;28;20636;-60
2021/09/07 06:37:33;;;;;;;10.07;7.87;;;;;;;17.32;68.51;97386.69;5008352;28;20222;-61
2021/09/07 06:39:59;;;;;;;10.50;7.53;;;;;;;17.30;68.79;97392.25;5003179;28;20944;-60
2021/09/07 06:42:24;;;;;;;11.10;8.00;;;;;;;17.30;68.97;97394.09;5009650;28;20194;-60
2021/09/07 06:44:50;;;;;;;10.97;7.50;;;;;;;17.35;68.92;97392.28;5010812;28;20232;-63
2021/09/07 06:47:15;;;;;;;11.33;7.97;;;;;;;17.09;70.12;97389.69;4998918;28;20217;-60
2021/09/07 06:49:41;;;;;;;12.30;7.97;;;;;;;17.25;69.91;97386.91;4996679;28;20195;-61
2021/09/07 06:52:06;;;;;;;10.03;7.43;;;;;;;17.12;70.84;97391.84;4996759;28;20594;-61
2021/09/07 06:54:32;;;;;;;10.63;7.53;;;;;;;17.14;70.52;97385.25;5002165;28;20184;-61
2021/09/07 06:56:57;;;;;;;12.00;7.97;;;;;;;17.29;69.89;97389.84;4999986;28;20198;-60
2021/09/07 06:59:22;;;;;;;10.30;7.43;;;;;;;17.38;69.69;97391.78;5009125;28;20187;-61
2021/09/07 07:01:48;;;;;;;10.07;7.80;;;;;;;17.57;68.92;97386.84;5004345;28;20698;-61
2021/09/07 07:04:13;;;;;;;10.17;8.03;;;;;;;17.71;68.69;97389.91;5004053;28;20222;-65
2021/09/07 07:06:39;;;;;;;10.27;8.20;;;;;;;18.11;67.18;97395.38;5004039;28;20206;-62
2021/09/07 07:09:04;;;;;;;10.93;8.37;;;;;;;18.59;65.66;97396.09;5000958;28;20183;-61
2021/09/07 07:11:30;;;;;;;9.97;7.83;;;;;;;18.80;64.71;97396.94;5006791;28;20317;-61
2021/09/07 07:13:55;;;;;;;11.30;7.47;;;;;;;19.17;63.45;97410.00;4999226;28;20175;-61
2021/09/07 07:16:20;;;;;;;11.00;7.53;;;;;;;19.57;62.55;97403.84;5000538;28;20226;-60
2021/09/07 07:18:46;;;;;;;10.32;7.93;;;;;;;19.84;61.35;97405.13;4998429;28;20183;-60
2021/09/07 07:21:11;;;;;;;9.52;7.80;;;;;;;19.99;61.09;97398.97;5001088;28;20187;-62
2021/09/07 07:23:37;;;;;;;12.88;7.68;;;;;;;20.05;59.93;97405.88;5005238;28;20273;-62
2021/09/07 07:26:02;;;;;;;10.02;7.47;;;;;;;20.12;60.38;97409.03;4998830;28;20540;-60
2021/09/07 07:28:27;;;;;;;11.55;7.28;;;;;;;20.28;59.67;97412.44;5008982;28;20230;-60
2021/09/07 07:30:53;;;;;;;8.88;7.35;;;;;;;20.09;60.43;97412.25;5001472;28;20184;-60
2021/09/07 07:33:18;;;;;;;10.85;8.00;;;;;;;20.31;60.23;97418.03;4997681;28;20219;-60
2021/09/07 07:35:44;;;;;;;10.93;7.22;;;;;;;20.30;60.42;97416.41;4996844;28;20184;-60
2021/09/07 07:38:09;;;;;;;10.82;7.88;;;;;;;20.32;60.85;97421.50;5006319;28;20680;-60
2021/09/07 07:40:36;;;;;;;10.30;8.15;;;;;;;20.38;61.24;97412.44;4995316;28;20235;-60
2021/09/07 07:43:01;;;;;;;10.82;7.85;;;;;;;20.34;61.53;97416.69;5006322;28;20829;-61
2021/09/07 07:45:27;;;;;;;10.18;7.28;;;;;;;20.50;61.27;97417.44;5001243;28;20190;-60
2021/09/07 07:47:52;;;;;;;10.68;7.85;;;;;;;20.71;60.02;97419.72;5007802;28;20563;-60
2021/09/07 07:50:18;;;;;;;10.82;7.22;;;;;;;20.59;60.38;97431.75;5004207;28;20620;-62
2021/09/07 07:52:44;;;;;;;10.70;7.90;;;;;;;20.93;58.99;97424.63;5003634;28;20266;-61
2021/09/07 07:55:10;;;;;;;9.88;7.03;;;;;;;20.96;57.59;97424.06;5000661;28;20243;-60
2021/09/07 07:57:35;;;;;;;8.23;6.60;;;;;;;20.98;56.58;97426.47;4999838;28;20192;-60
2021/09/07 08:00:01;;;;;;;8.75;6.82;;;;;;;21.21;56.61;97425.00;5003024;28;20279;-60
2021/09/07 08:02:27;;;;;;;9.02;6.97;;;;;;;21.43;55.71;97428.81;5002055;28;20270;-60
2021/09/07 08:04:53;;;;;;;10.35;7.00;;;;;;;21.54;55.53;97427.63;5004177;28;20189;-60
2021/09/07 08:07:18;;;;;;;10.18;6.75;;;;;;;21.67;56.20;97433.41;5004292;28;20210;-60
2021/09/07 08:09:43;;;;;;;10.35;7.15;;;;;;;22.02;55.48;97434.91;5004244;28;20612;-60
2021/09/07 08:12:09;;;;;;;9.55;6.90;;;;;;;21.97;56.42;97425.91;4997198;28;20279;-60
2021/09/07 08:14:34;;;;;;;9.07;6.63;;;;;;;22.11;54.78;97419.88;4997612;28;20188;-60
2021/09/07 08:17:00;;;;;;;10.75;6.97;;;;;;;22.44;55.00;97416.28;5005746;28;20210;-62
2021/09/07 08:19:25;;;;;;;9.00;6.47;;;;;;;22.36;52.67;97420.38;4998923;28;20237;-60
2021/09/07 08:21:51;;;;;;;8.18;6.22;;;;;;;22.43;51.27;97413.88;5004902;28;20187;-60
2021/09/07 08:24:16;;;;;;;10.45;7.13;;;;;;;22.31;53.81;97424.97;4993604;28;20263;-60
2021/09/07 08:26:42;;;;;;;8.05;6.20;;;;;;;22.43;54.05;97413.88;5003065;28;20357;-62
2021/09/07 08:29:07;;;;;;;8.02;6.28;;;;;;;22.47;52.91;97415.69;5012604;28;20191;-61
2021/09/07 08:31:32;;;;;;;9.77;5.70;;;;;;;22.68;50.83;97424.25;4997641;28;20191;-63
2021/09/07 08:33:58;;;;;;;9.32;6.00;;;;;;;22.82;50.21;97419.00;5001441;28;20199;-61
2021/09/07 08:36:23;;;;;;;9.13;5.95;;;;;;;22.82;50.68;97430.47;5002406;28;20191;-61
2021/09/07 08:38:49;;;;;;;6.82;5.47;;;;;;;22.90;50.48;97424.50;5005962;28;20228;-60
2021/09/07 08:41:19;;;;;;;11.05;6.30;;;;;;;22.87;49.64;97421.59;4999357;28;20649;-60
2021/09/07 08:43:52;;;;;;;8.20;6.57;;;;;;;22.93;49.26;97415.88;5005665;28;20187;-61
2021/09/07 08:46:18;;;;;;;8.20;5.82;;;;;;;22.71;49.27;97415.63;5001461;28;20180;-60
2021/09/07 08:48:44;;;;;;;10.75;6.28;;;;;;;22.75;50.15;97424.69;5001037;28;20222;-60
2021/09/07 08:51:10;;;;;;;7.30;5.82;;;;;;;22.67;49.88;97418.09;5006222;28;20652;-60
2021/09/07 08:53:35;;;;;;;7.55;6.10;;;;;;;22.84;49.82;97432.88;5004449;28;20215;-60
2021/09/07 08:56:04;;;;;;;8.27;6.20;;;;;;;22.93;50.12;97423.09;5000240;28;20505;-61
2021/09/07 08:58:30;;;;;;;7.60;5.97;;;;;;;22.96;49.69;97427.91;5005644;28;20246;-60
2021/09/07 09:00:55;;;;;;;7.70;6.18;;;;;;;22.95;49.73;97426.28;5002547;28;20586;-60
2021/09/07 09:03:20;;;;;;;6.88;5.38;;;;;;;23.19;49.46;97445.69;5002032;28;20225;-60
2021/09/07 09:05:49;;;;;;;8.13;5.40;;;;;;;23.27;48.08;97438.91;5003722;28;20180;-60
2021/09/07 09:08:17;;;;;;;7.45;5.65;;;;;;;23.45;45.74;97448.78;5005772;28;20672;-60
2021/09/07 09:10:43;;;;;;;6.13;5.28;;;;;;;23.60;46.69;97445.88;5002686;28;20196;-60
2021/09/07 09:13:11;;;;;;;6.55;5.38;;;;;;;23.70;46.66;97448.38;5002569;28;20549;-60
2021/09/07 09:15:37;;;;;;;6.88;5.40;;;;;;;23.77;47.81;97453.34;5003209;28;20611;-61
2021/09/07 09:18:09;;;;;;;7.03;5.15;;;;;;;23.58;44.13;97440.00;5011710;28;20219;-63
2021/09/07 09:20:36;;;;;;;5.85;4.90;;;;;;;23.56;45.64;97442.22;5001491;28;20179;-60
2021/09/07 09:23:03;;;;;;;8.63;5.30;;;;;;;23.67;44.31;97442.81;5000096;28;20192;-66
2021/09/07 09:25:33;;;;;;;7.68;5.63;;;;;;;23.61;45.38;97442.91;5003030;28;20212;-60
2021/09/07 09:27:58;;;;;;;6.85;5.45;;;;;;;22.92;47.90;97448.25;5009310;28;20238;-61
2021/09/07 09:30:36;;;;;;;8.73;5.75;;;;;;;23.00;48.00;97447.63;4997507;28;20639;-60
2021/09/07 09:33:02;;;;;;;8.07;5.88;;;;;;;23.32;45.78;97438.81;5010344;28;20183;-60
2021/09/07 09:35:28;;;;;;;8.00;6.13;;;;;;;23.33;46.36;97443.88;5009639;28;20666;-61
2021/09/07 09:37:59;;;;;;;9.43;6.38;;;;;;;23.23;46.68;97443.25;5006667;28;20545;-61
2021/09/07 09:40:26;;;;;;;6.82;5.95;;;;;;;22.74;47.15;97439.13;5001635;28;20251;-60
2021/09/07 09:42:52;;;;;;;7.85;5.88;;;;;;;22.86;45.90;97439.50;4987312;28;20610;-60
2021/09/07 09:45:18;;;;;;;6.90;5.78;;;;;;;22.74;46.78;97441.81;5002375;28;20274;-60
2021/09/07 09:47:45;;;;;;;8.50;6.20;;;;;;;22.39;47.35;97435.03;5000434;28;20291;-60
2021/09/07 09:50:14;;;;;;;8.88;6.30;;;;;;;22.87;48.14;97437.63;5004914;28;20664;-60
2021/09/07 09:52:41;;;;;;;8.40;6.28;;;;;;;23.02;50.33;97434.72;5007002;28;20648;-60
2021/09/07 09:55:09;;;;;;;7.68;5.93;;;;;;;22.92;51.70;97434.88;5008224;28;20652;-62
2021/09/07 09:57:36;;;;;;;9.57;5.72;;;;;;;23.02;52.22;97429.38;4995688;28;20198;-60
2021/09/07 10:00:07;;;;;;;7.93;5.38;;;;;;;23.05;48.54;97429.63;5003746;28;20199;-59
2021/09/07 10:02:33;;;;;;;7.20;5.15;;;;;;;23.05;47.14;97426.94;4998056;28;20184;-60
2021/09/07 10:04:59;;;;;;;5.75;4.97;;;;;;;23.11;47.08;97433.00;5005629;28;20536;-60
2021/09/07 10:07:26;;;;;;;6.80;5.50;;;;;;;23.08;48.23;97433.56;4999120;28;20664;-62
2021/09/07 10:09:57;;;;;;;6.82;5.55;;;;;;;22.80;49.80;97437.97;5006591;28;20195;-61
2021/09/07 10:12:32;;;;;;;8.45;5.35;;;;;;;22.67;49.93;97441.38;4995340;28;20184;-60
2021/09/07 10:15:17;;;;;;;8.32;5.28;;;;;;;22.84;50.88;97440.91;5004930;28;20184;-60
2021/09/07 10:20:14;;;;;;;8.60;5.00;;;;;;;23.02;48.18;97427.50;5002288;28;20223;-60
2021/09/07 10:23:08;;;;;;;9.15;5.43;;;;;;;23.29;47.31;97428.72;5002307;28;20227;-60
2021/09/07 10:25:50;;;;;;;6.68;4.78;;;;;;;23.34;46.23;97428.63;5007069;28;20186;-61
2021/09/07 10:28:32;;;;;;;5.68;4.88;;;;;;;23.51;45.51;97427.03;4997560;28;20208;-60
2021/09/07 10:31:03;;;;;;;6.97;5.03;;;;;;;23.29;46.56;97432.19;5007929;28;20196;-60
2021/09/07 10:33:33;;;;;;;5.78;4.88;;;;;;;23.40;43.78;97422.91;5010151;28;20198;-60
2021/09/07 10:36:19;;;;;;;6.40;4.95;;;;;;;23.17;45.13;97418.47;4999989;28;20191;-60
2021/09/07 10:38:51;;;;;;;6.38;4.80;;;;;;;23.37;44.59;97411.97;5001879;28;20726;-60
2021/09/07 10:41:28;;;;;;;6.03;4.82;;;;;;;23.82;43.97;97424.59;5000783;28;20194;-60
2021/09/07 10:44:00;;;;;;;5.03;4.32;;;;;;;23.91;43.74;97419.34;5002977;28;20209;-60
2021/09/07 10:46:57;;;;;;;6.03;5.03;;;;;;;23.85;42.81;97420.56;5004216;28;20237;-60
2021/09/07 10:49:25;;;;;;;7.63;4.88;;;;;;;23.92;42.76;97416.38;4997203;28;20188;-61
2021/09/07 10:52:12;;;;;;;5.88;5.05;;;;;;;23.79;43.29;97421.72;5005808;28;20184;-60
2021/09/07 10:54:52;;;;;;;4.95;4.43;;;;;;;24.20;42.59;97411.03;4997961;28;20643;-60
2021/09/07 10:57:56;;;;;;;7.50;4.80;;;;;;;24.03;42.69;97401.69;5010201;28;20198;-63
2021/09/07 11:00:21;;;;;;;6.88;5.57;;;;;;;23.68;43.14;97402.38;4997580;28;20257;-60
2021/09/07 11:02:55;;;;;;;5.75;4.78;;;;;;;23.80;43.15;97396.53;5005677;28;20187;-63
2021/09/07 11:05:23;;;;;;;5.47;4.80;;;;;;;23.80;42.68;97391.97;5009561;28;20567;-60
2021/09/07 11:08:10;;;;;;;5.80;4.70;;;;;;;23.69;43.49;97390.56;4998621;28;20261;-61
2021/09/07 11:10:44;;;;;;;5.53;4.85;;;;;;;23.99;44.62;97389.19;5004245;28;20203;-60
2021/09/07 11:13:25;;;;;;;5.68;4.80;;;;;;;24.46;43.00;97387.22;4997498;28;20223;-61
2021/09/07 11:15:53;;;;;;;5.35;4.65;;;;;;;24.57;42.12;97385.91;4996844;28;20682;-60
2021/09/07 11:18:25;;;;;;;4.68;4.20;;;;;;;24.42;42.10;97374.41;5006586;28;20191;-61
2021/09/07 11:20:52;;;;;;;6.55;4.43;;;;;;;24.39;41.44;97384.94;5003650;28;20266;-62
2021/09/07 11:23:17;;;;;;;9.48;5.22;;;;;;;24.76;41.36;97373.13;4997753;28;20184;-61
2021/09/07 11:25:45;;;;;;;4.97;4.47;;;;;;;24.79;41.38;97376.00;5003024;28;20196;-61
2021/09/07 11:28:12;;;;;;;4.88;4.32;;;;;;;25.13;40.61;97366.66;4994951;28;20275;-61